Time;durP1;ratioP1;P1;durP2;ratioP2;P2;SDS_P1;SDS_P2;PMS_P1;PMS_P2;Temp;Humidity;BMP_temperature;BMP_pressure;BME280_temperature;BME280_humidity;BME280_pressure;Samples;Min_cycle;Max_cycle;Signal;HPM_P1;HPM_P2
2023/05/05 00:01:06;;;;;;;13.43;7.80;;;;;;;16.99;59.44;101335.53;4885644;29;20389;-80
2023/05/05 00:03:35;;;;;;;15.23;7.43;;;;;;;16.97;59.67;101334.72;4891643;29;20044;-79
2023/05/05 00:06:01;;;;;;;13.77;7.85;;;;;;;16.93;60.32;101336.63;4887210;29;20040;-80
2023/05/05 00:08:27;;;;;;;11.13;8.15;;;;;;;16.94;60.71;101334.84;4903125;29;20051;-80
2023/05/05 00:10:53;;;;;;;13.82;8.32;;;;;;;16.94;61.78;101345.53;4892641;29;20033;-80
2023/05/05 00:13:19;;;;;;;15.43;7.72;;;;;;;16.94;62.16;101345.53;4912629;29;20091;-79
2023/05/05 00:15:46;;;;;;;15.15;7.93;;;;;;;16.92;62.30;101344.72;4899365;29;20089;-79
2023/05/05 00:18:15;;;;;;;17.02;8.05;;;;;;;16.91;63.43;101337.63;4886809;29;20391;-79
2023/05/05 00:20:41;;;;;;;17.17;8.80;;;;;;;16.84;63.88;101353.06;4912461;29;20487;-79
2023/05/05 00:23:06;;;;;;;17.83;8.52;;;;;;;16.85;65.92;101351.25;4918218;29;20095;-80
2023/05/05 00:25:32;;;;;;;14.18;8.77;;;;;;;16.83;65.85;101348.63;4900718;29;20123;-80
2023/05/05 00:27:58;;;;;;;11.15;9.27;;;;;;;16.82;68.02;101348.72;4918277;29;20063;-80
2023/05/05 00:30:24;;;;;;;18.70;10.68;;;;;;;16.76;68.83;101352.44;4917865;29;20024;-80
2023/05/05 00:32:49;;;;;;;12.27;9.30;;;;;;;16.76;68.56;101356.00;4906346;29;20468;-80
2023/05/05 00:35:18;;;;;;;13.82;10.40;;;;;;;16.75;68.98;101353.38;4879335;29;20080;-79
2023/05/05 00:37:44;;;;;;;12.90;10.45;;;;;;;16.69;69.51;101348.25;4900240;29;20430;-80
2023/05/05 00:40:10;;;;;;;15.40;10.40;;;;;;;16.69;69.02;101353.59;4911889;29;20111;-79
2023/05/05 00:42:39;;;;;;;14.80;10.90;;;;;;;16.67;69.68;101351.00;4910936;29;20036;-79
2023/05/05 00:45:05;;;;;;;18.90;11.50;;;;;;;16.61;70.25;101345.03;4896352;29;20035;-80
2023/05/05 00:47:31;;;;;;;15.75;10.57;;;;;;;16.62;69.50;101346.78;4909134;29;20130;-79
2023/05/05 00:49:57;;;;;;;16.38;11.35;;;;;;;16.58;69.69;101340.66;4903212;29;20099;-79
2023/05/05 00:52:23;;;;;;;18.15;11.55;;;;;;;16.58;69.88;101347.81;4874686;29;20036;-79
2023/05/05 00:54:48;;;;;;;15.10;11.75;;;;;;;16.45;71.36;101350.97;4917296;29;20052;-79
2023/05/05 00:57:14;;;;;;;17.95;10.70;;;;;;;16.48;71.32;101360.66;4894864;29;20032;-79
2023/05/05 00:59:40;;;;;;;13.77;9.93;;;;;;;16.43;70.38;101362.66;4893296;29;20419;-79
2023/05/05 01:02:05;;;;;;;14.35;10.27;;;;;;;16.34;71.26;101363.84;4904362;29;20036;-79
2023/05/05 01:04:31;;;;;;;14.57;10.38;;;;;;;16.30;70.54;101365.78;4917663;29;20504;-79
2023/05/05 01:07:29;;;;;;;16.90;9.98;;;;;;;16.27;70.65;101363.25;4887240;29;20100;-79
2023/05/05 01:10:02;;;;;;;12.55;9.15;;;;;;;16.25;69.79;101365.09;4915486;29;20127;-79
2023/05/05 01:12:52;;;;;;;13.68;9.43;;;;;;;16.21;69.49;101365.25;4895231;29;20043;-79
2023/05/05 01:15:34;;;;;;;11.90;8.05;;;;;;;16.16;69.27;101361.88;4912139;29;20387;-79
2023/05/05 01:18:30;;;;;;;11.77;7.88;;;;;;;16.14;68.02;101372.63;4917277;29;20039;-79
2023/05/05 01:21:02;;;;;;;10.07;7.45;;;;;;;16.08;69.61;101383.53;4887168;29;20040;-79
2023/05/05 01:23:50;;;;;;;15.35;9.70;;;;;;;16.05;70.05;101379.19;4900089;29;20088;-79
2023/05/05 01:26:46;;;;;;;10.55;8.48;;;;;;;15.99;69.76;101382.06;4906396;29;20496;-79
2023/05/05 01:29:21;;;;;;;10.00;8.13;;;;;;;15.88;69.91;101386.94;4915772;29;20032;-79
2023/05/05 01:31:51;;;;;;;11.95;7.78;;;;;;;15.86;69.83;101378.09;4913715;29;20051;-79
2023/05/05 01:34:26;;;;;;;10.98;7.25;;;;;;;15.84;68.61;101380.81;4909270;29;20488;-79
2023/05/05 01:36:57;;;;;;;10.30;6.68;;;;;;;15.82;67.34;101355.94;4917205;29;20047;-79
2023/05/05 01:39:27;;;;;;;12.07;6.05;;;;;;;15.81;68.18;101351.53;4896981;29;20095;-80
2023/05/05 01:41:57;;;;;;;6.88;4.68;;;;;;;15.78;67.98;101340.13;4904834;29;20036;-80
2023/05/05 01:44:24;;;;;;;8.87;5.13;;;;;;;15.76;66.75;101355.31;4909518;29;20066;-79
2023/05/05 01:46:51;;;;;;;7.13;4.60;;;;;;;15.75;67.17;101364.22;4919313;29;20039;-80
2023/05/05 01:49:16;;;;;;;8.27;4.53;;;;;;;15.72;67.03;101367.88;4887079;29;20044;-80
2023/05/05 01:51:45;;;;;;;7.72;4.38;;;;;;;15.70;66.90;101375.06;4900970;29;20029;-80
2023/05/05 01:54:14;;;;;;;12.23;4.72;;;;;;;15.66;67.87;101376.09;4908598;29;20059;-79
2023/05/05 01:56:40;;;;;;;9.48;4.88;;;;;;;15.64;67.35;101378.78;4899437;29;20122;-79
2023/05/05 01:59:08;;;;;;;7.25;4.18;;;;;;;15.63;67.05;101373.53;4899431;29;20059;-79
2023/05/05 02:01:40;;;;;;;5.45;4.22;;;;;;;15.58;68.29;101370.13;4899137;29;20030;-79
2023/05/05 02:04:08;;;;;;;8.00;4.70;;;;;;;15.52;65.67;101365.88;4899568;29;20072;-79
2023/05/05 02:06:35;;;;;;;8.18;4.30;;;;;;;15.47;66.72;101368.69;4914416;29;20024;-79
2023/05/05 02:09:02;;;;;;;6.15;4.25;;;;;;;15.41;67.23;101366.25;4888486;29;20042;-79
2023/05/05 02:11:28;;;;;;;5.45;4.10;;;;;;;15.40;68.32;101376.94;4916179;29;20428;-79
2023/05/05 02:13:55;;;;;;;5.32;3.92;;;;;;;15.37;67.26;101372.59;4883837;29;20095;-79
2023/05/05 02:16:22;;;;;;;7.53;3.65;;;;;;;15.37;66.06;101369.06;4916178;29;20412;-79
2023/05/05 02:18:49;;;;;;;6.07;3.95;;;;;;;15.34;67.55;101374.50;4882693;29;20032;-79
2023/05/05 02:21:16;;;;;;;7.30;4.07;;;;;;;15.29;67.34;101374.66;4890725;29;20032;-79
2023/05/05 02:23:50;;;;;;;6.43;4.35;;;;;;;15.26;67.29;101377.44;4857606;29;20171;-79
2023/05/05 02:26:20;;;;;;;7.15;4.00;;;;;;;15.23;67.78;101380.16;4899497;29;20518;-79
2023/05/05 02:28:51;;;;;;;7.87;4.07;;;;;;;15.21;68.24;101384.72;4900063;29;20047;-80
2023/05/05 02:31:20;;;;;;;6.85;3.85;;;;;;;15.15;68.35;101387.56;4900392;29;20036;-79
2023/05/05 02:33:48;;;;;;;4.53;3.50;;;;;;;15.08;68.21;101375.34;4889280;29;20258;-79
2023/05/05 02:36:19;;;;;;;9.45;3.65;;;;;;;15.02;68.29;101387.09;4897177;29;20027;-79
2023/05/05 02:38:56;;;;;;;8.85;3.47;;;;;;;14.95;67.94;101386.41;4888501;29;20052;-79
2023/05/05 02:41:27;;;;;;;8.35;3.35;;;;;;;14.90;67.99;101385.66;4884573;29;20036;-79
2023/05/05 02:43:56;;;;;;;5.97;3.15;;;;;;;14.83;68.55;101389.44;4914697;29;20084;-79
2023/05/05 02:46:22;;;;;;;3.38;2.70;;;;;;;14.78;69.00;101397.56;4898563;29;20036;-79
2023/05/05 02:48:48;;;;;;;4.47;2.95;;;;;;;14.72;69.29;101408.44;4899206;29;20047;-79
2023/05/05 02:51:13;;;;;;;7.07;3.15;;;;;;;14.67;69.36;101404.19;4900995;29;20532;-79
2023/05/05 02:53:40;;;;;;;6.03;3.00;;;;;;;14.63;69.53;101406.03;4898915;29;20056;-79
2023/05/05 02:56:11;;;;;;;6.03;2.70;;;;;;;14.55;71.17;101411.59;4901153;29;20080;-79
2023/05/05 02:58:52;;;;;;;5.18;2.53;;;;;;;14.50;70.31;101409.97;4887271;29;20047;-79
2023/05/05 03:01:30;;;;;;;3.58;2.40;;;;;;;14.45;70.43;101409.22;4898687;29;20043;-79
2023/05/05 03:04:04;;;;;;;;;;;;;;;14.49;69.42;101408.19;4930727;29;20487;-79
2023/05/05 03:06:35;;;;;;;;;;;;;;;14.47;70.23;101410.94;4901501;29;20371;-79
2023/05/05 03:09:20;;;;;;;;;;;;;;;14.46;68.92;101408.28;4930578;29;20395;-79
2023/05/05 03:11:52;;;;;;;;;;;;;;;14.36;67.46;101397.03;4930455;29;19915;-78
2023/05/05 03:14:19;;;;;;;;;;;;;;;14.29;66.77;101395.44;4921713;29;20326;-79
2023/05/05 03:16:48;;;;;;;;;;;;;;;14.20;67.09;101399.25;4897364;29;19919;-79
2023/05/05 03:19:17;;;;;;;;;;;;;;;14.15;67.05;101401.19;4918271;28;19923;-79
2023/05/05 03:21:44;;;;;;;;;;;;;;;14.08;66.64;101403.13;4909363;29;19934;-79
2023/05/05 03:24:11;;;;;;;;;;;;;;;14.01;66.88;101406.00;4930529;29;20165;-79
2023/05/05 03:26:36;;;;;;;;;;;;;;;13.94;66.08;101415.94;4915726;29;20374;-79
2023/05/05 03:29:01;;;;;;;;;;;;;;;13.91;67.60;101413.38;4930319;28;19926;-79
2023/05/05 03:31:29;;;;;;;;;;;;;;;13.88;68.67;101418.78;4914269;29;19915;-79
2023/05/05 03:33:57;;;;;;;;;;;;;;;13.87;70.50;101420.56;4922989;29;19970;-79
2023/05/05 03:36:27;;;;;;;;;;;;;;;13.86;69.50;101417.94;4934150;29;20388;-79
2023/05/05 03:38:53;;;;;;;;;;;;;;;13.85;69.86;101405.56;4923180;29;20298;-79
2023/05/05 03:41:20;;;;;;;;;;;;;;;13.84;69.40;101415.31;4916144;29;19982;-79
2023/05/05 03:43:46;;;;;;;;;;;;;;;13.79;67.59;101421.69;4902302;29;19974;-79
2023/05/05 03:46:11;;;;;;;;;;;;;;;13.72;68.57;101412.97;4931864;29;19923;-80
2023/05/05 03:48:37;;;;;;;;;;;;;;;13.63;68.65;101418.53;4922598;29;19914;-79
2023/05/05 03:51:02;;;;;;;;;;;;;;;13.54;69.32;101419.63;4908471;29;20359;-79
2023/05/05 03:53:30;;;;;;;;;;;;;;;13.49;69.38;101425.06;4917540;29;19961;-79
2023/05/05 03:55:56;;;;;;;;;;;;;;;13.47;69.75;101434.88;4917618;29;19918;-79
2023/05/05 03:58:21;;;;;;;;;;;;;;;13.43;69.86;101430.56;4914171;29;19923;-79
2023/05/05 04:00:47;;;;;;;;;;;;;;;13.40;71.32;101429.72;4908541;29;19921;-79
2023/05/05 04:03:12;;;;;;;;;;;;;;;13.39;70.96;101434.19;4919103;29;19995;-79
2023/05/05 04:05:38;;;;;;;;;;;;;;;13.38;72.23;101439.53;4917688;29;19934;-79
2023/05/05 04:08:04;;;;;;;;;;;;;;;13.38;72.90;101444.84;4917866;29;20381;-79
2023/05/05 04:10:29;;;;;;;;;;;;;;;13.39;73.49;101446.63;4918841;29;19917;-79
2023/05/05 04:12:55;;;;;;;;;;;;;;;13.39;74.25;101443.97;4917779;29;20396;-79
2023/05/05 04:15:20;;;;;;;;;;;;;;;13.38;70.58;101448.41;4897778;29;19926;-79
2023/05/05 04:17:46;;;;;;;;;;;;;;;13.36;71.58;101452.03;4909675;29;19919;-79
2023/05/05 04:20:11;;;;;;;;;;;;;;;13.31;70.36;101446.81;4897232;29;19936;-79
2023/05/05 04:22:40;;;;;;;;;;;;;;;13.27;73.45;101451.31;4901722;29;19926;-79
2023/05/05 04:25:05;;;;;;;;;;;;;;;13.25;74.58;101453.13;4918040;29;19915;-79
2023/05/05 04:27:31;;;;;;;;;;;;;;;13.24;74.06;101454.00;4914073;29;19979;-79
2023/05/05 04:29:58;;;;;;;;;;;;;;;13.20;72.18;101462.09;4917229;29;20041;-79
2023/05/05 04:32:24;;;;;;;;;;;;;;;13.17;70.92;101460.38;4892406;29;20026;-79
2023/05/05 04:34:49;;;;;;;;;;;;;;;13.12;71.11;101460.47;4896678;29;19922;-79
2023/05/05 04:37:15;;;;;;;;;;;;;;;13.09;71.50;101460.56;4917370;29;20345;-79
2023/05/05 04:39:40;;;;;;;;;;;;;;;13.09;71.29;101462.34;4905276;29;19919;-78
2023/05/05 04:42:06;;;;;;;;;;;;;;;13.09;71.65;101462.34;4918356;29;19931;-79
2023/05/05 04:44:32;;;;;;;;;;;;;;;13.11;73.19;101464.06;4902877;29;20283;-79
2023/05/05 04:46:58;;;;;;;;;;;;;;;13.13;77.14;101464.91;4918332;29;19923;-79
2023/05/05 04:49:24;;;;;;;;;;;;;;;13.15;74.88;101462.19;4917997;29;20350;-79
2023/05/05 04:51:49;;;;;;;;;;;;;;;13.15;75.76;101461.31;4907614;29;20014;-79
2023/05/05 04:54:15;;;;;;;;;;;;;;;13.15;75.10;101470.16;4909607;29;20368;-79
2023/05/05 04:56:41;;;;;;;;;;;;;;;13.16;74.80;101471.06;4930994;29;19938;-79
2023/05/05 04:59:07;;;;;;;;;;;;;;;13.15;71.58;101482.59;4916740;29;19923;-79
2023/05/05 05:01:33;;;;;;;;;;;;;;;13.10;73.59;101470.31;4932379;29;19919;-79
2023/05/05 05:03:58;;;;;;;;;;;;;;;13.08;73.75;101472.13;4918045;29;19919;-78
2023/05/05 05:06:24;;;;;;;;;;;;;;;13.07;72.05;101461.50;4917560;29;20383;-78
2023/05/05 05:08:49;;;;;;;;;;;;;;;13.06;73.23;101468.59;4912182;29;20356;-78
2023/05/05 05:11:14;;;;;;;;;;;;;;;13.06;73.84;101465.09;4913886;29;19920;-79
2023/05/05 05:13:40;;;;;;;;;;;;;;;13.08;73.04;101457.91;4919531;29;19915;-79
2023/05/05 05:16:06;;;;;;;;;;;;;;;13.09;76.83;101462.34;4918885;29;19915;-79
2023/05/05 05:18:31;;;;;;;;;;;;;;;13.17;74.44;101462.16;4919044;29;19915;-79
2023/05/05 05:20:57;;;;;;;;;;;;;;;13.23;74.63;101448.72;4919321;28;19994;-78
2023/05/05 05:23:22;;;;;;;;;;;;;;;13.27;73.49;101461.94;4919324;29;19911;-80
2023/05/05 05:25:48;;;;;;;;;;;;;;;13.34;72.67;101465.34;4937799;29;19989;-79
2023/05/05 05:28:16;;;;;;;;;;;;;;;13.38;75.28;101455.50;4934188;29;20018;-79
2023/05/05 05:30:47;;;;;;;;;;;;;;;13.43;76.43;101462.47;4927048;29;20371;-79
2023/05/05 05:33:12;;;;;;;;;;;;;;;13.51;75.93;101470.28;4908041;29;19915;-79
2023/05/05 05:35:38;;;;;;;;;;;;;;;13.55;74.78;101456.00;4926362;29;20379;-79
2023/05/05 05:38:04;;;;;;;;;;;;;;;13.60;76.12;101459.41;4926652;29;20014;-79
2023/05/05 05:40:30;;;;;;;;;;;;;;;13.68;77.18;101462.75;4908383;29;19915;-79
2023/05/05 05:42:55;;;;;;;;;;;;;;;13.75;78.01;101464.34;4915560;29;20026;-82
2023/05/05 05:45:25;;;;;;;;;;;;;;;13.83;75.17;101465.94;4931114;29;20001;-82
2023/05/05 05:47:50;;;;;;;;;;;;;;;13.89;75.49;101471.09;4931403;29;20418;-82
2023/05/05 05:50:16;;;;;;;;;;;;;;;13.94;75.02;101477.19;4891283;29;20014;-82
2023/05/05 05:52:42;;;;;;;;;;;;;;;14.01;73.21;101492.09;4912908;29;19916;-82
2023/05/05 05:55:07;;;;;;;;;;;;;;;14.09;76.05;101494.56;4898794;29;19959;-82
2023/05/05 05:57:33;;;;;;;;;;;;;;;14.16;77.68;101496.16;4919592;28;19927;-82
2023/05/05 06:00:00;;;;;;;;;;;;;;;14.24;78.59;101509.25;4925384;29;20255;-82
2023/05/05 06:02:26;;;;;;;;;;;;;;;14.32;75.88;101516.16;4922310;29;20203;-82
2023/05/05 06:04:51;;;;;;;;;;;;;;;14.39;76.06;101511.50;4915036;28;19916;-82
2023/05/05 06:07:17;;;;;;;;;;;;;;;14.47;76.85;101519.31;4912187;29;19958;-82
2023/05/05 06:09:43;;;;;;;;;;;;;;;14.52;76.44;101528.94;4925889;29;19940;-82
2023/05/05 06:12:09;;;;;;;;;;;;;;;14.61;75.78;101530.47;4931209;29;19926;-82
2023/05/05 06:14:35;;;;;;;;;;;;;;;14.69;78.45;101530.28;4916441;29;20438;-83
2023/05/05 06:17:00;;;;;;;;;;;;;;;14.77;77.70;101539.81;4895064;29;19955;-83
2023/05/05 06:19:28;;;;;;;;;;;;;;;14.88;79.24;101531.50;4915952;29;19915;-83
2023/05/05 06:21:53;;;;;;;;;;;;;;;14.98;78.41;101529.44;4927819;29;19930;-83
2023/05/05 06:24:19;;;;;;;;;;;;;;;15.08;78.52;101533.59;4930757;29;20375;-83
2023/05/05 06:26:45;;;;;;;;;;;;;;;15.19;78.84;101541.28;4905097;29;19947;-83
2023/05/05 06:29:10;;;;;;;;;;;;;;;15.28;79.13;101541.00;4927090;29;19941;-83
2023/05/05 06:31:36;;;;;;;;;;;;;;;15.39;76.81;101533.53;4913726;29;19966;-84
2023/05/05 06:34:01;;;;;;;;;;;;;;;15.47;77.64;101536.84;4896975;29;20398;-83
2023/05/05 06:36:27;;;;;;;;;;;;;;;15.61;78.25;101540.91;4902951;29;19969;-83
2023/05/05 06:38:52;;;;;;;;;;;;;;;15.70;76.47;101540.59;4904827;29;20363;-83
2023/05/05 06:41:18;;;;;;;;;;;;;;;15.75;77.35;101540.47;4915219;29;19936;-83
2023/05/05 06:43:43;;;;;;;;;;;;;;;15.79;76.71;101540.31;4930691;29;19915;-83
2023/05/05 06:46:11;;;;;;;;;;;;;;;15.89;76.79;101540.91;4930145;29;19929;-83
2023/05/05 06:48:39;;;;;;;;;;;;;;;15.98;76.21;101545.94;4930318;29;20005;-83
2023/05/05 06:51:05;;;;;;;;;;;;;;;16.01;75.86;101543.16;4901854;29;20006;-83
2023/05/05 06:53:30;;;;;;;;;;;;;;;15.98;76.16;101542.41;4902884;29;19961;-83
2023/05/05 06:55:55;;;;;;;;;;;;;;;15.99;76.12;101550.34;4902732;29;19927;-83
2023/05/05 06:58:21;;;;;;;;;;;;;;;16.06;75.38;101548.34;4901214;29;19963;-83
2023/05/05 07:00:46;;;;;;;;;;;;;;;16.12;74.85;101543.69;4915837;29;19919;-83
2023/05/05 07:03:12;;;;;;;;;;;;;;;16.18;74.57;101549.75;4915870;29;19911;-83
2023/05/05 07:05:37;;;;;;;;;;;;;;;16.23;74.42;101543.31;4898420;29;19958;-83
2023/05/05 07:08:02;;;;;;;;;;;;;;;16.30;73.41;101549.34;4919330;29;19915;-83
2023/05/05 07:10:28;;;;;;;;;;;;;;;16.41;74.20;101549.81;4902482;29;20006;-83
2023/05/05 07:12:53;;;;;;;;;;;;;;;16.50;73.21;101546.81;4907236;29;20295;-83
2023/05/05 07:15:19;;;;;;;;;;;;;;;16.54;72.80;101550.25;4917200;29;19930;-83
2023/05/05 07:17:44;;;;;;;;;;;;;;;16.62;72.03;101552.69;4918291;29;19915;-83
2023/05/05 07:20:11;;;;;;;;;;;;;;;16.70;72.86;101554.13;4899081;29;20017;-83
2023/05/05 07:22:37;;;;;;;;;;;;;;;16.83;71.37;101562.63;4902273;29;20296;-83
2023/05/05 07:25:03;;;;;;;;;;;;;;;16.86;71.30;101562.50;4919193;29;19942;-84
2023/05/05 07:27:29;;;;;;;;;;;;;;;16.86;71.06;101562.50;4910701;29;19927;-83
2023/05/05 07:29:55;;;;;;;;;;;;;;;16.90;70.97;101564.16;4919098;29;20352;-84
2023/05/05 07:32:20;;;;;;;;;;;;;;;17.07;70.53;101560.84;4909820;29;19946;-84
2023/05/05 07:34:45;;;;;;;;;;;;;;;17.27;68.94;101556.53;4913425;29;20295;-83
2023/05/05 07:37:11;;;;;;;;;;;;;;;17.42;68.59;101554.13;4918172;29;19922;-83
2023/05/05 07:39:36;;;;;;;;;;;;;;;17.51;68.46;101550.25;4901972;29;19911;-84
2023/05/05 07:42:02;;;;;;;;;;;;;;;17.64;68.10;101561.31;4909903;29;19915;-83
2023/05/05 07:44:27;;;;;;;;;;;;;;;17.77;67.07;101551.84;4912026;29;19935;-83
2023/05/05 07:46:53;;;;;;;;;;;;;;;17.88;66.49;101542.53;4907422;29;19919;-84
2023/05/05 07:49:19;;;;;;;;;;;;;;;17.92;66.16;101549.53;4917433;29;19922;-84
2023/05/05 07:51:44;;;;;;;;;;;;;;;17.92;66.23;101549.53;4890578;29;20346;-83
2023/05/05 07:54:10;;;;;;;;;;;;;;;17.94;65.28;101547.66;4918704;29;19946;-84
2023/05/05 07:56:36;;;;;;;;;;;;;;;18.04;65.29;101541.84;4918657;29;19919;-84
2023/05/05 07:59:01;;;;;;;;;;;;;;;18.15;65.45;101543.19;4903206;29;19923;-84
2023/05/05 08:01:27;;;;;;;;;;;;;;;18.24;65.41;101546.34;4923283;29;19922;-84
2023/05/05 08:03:52;;;;;;;;;;;;;;;18.42;64.73;101541.13;4935962;29;19907;-84
2023/05/05 08:06:21;;;;;;;;;;;;;;;18.53;64.48;101541.56;4911870;29;19919;-84
2023/05/05 08:08:53;;;;;;;;;;;;;;;18.60;63.98;101528.75;4920790;29;19982;-83
2023/05/05 08:11:19;;;;;;;;;;;;;;;18.64;62.47;101538.38;4922875;29;20434;-84
2023/05/05 08:13:45;;;;;;;;;;;;;;;18.65;61.37;101537.47;4919654;29;20278;-81
2023/05/05 08:16:10;;;;;;;;;;;;;;;18.60;59.70;101539.47;4918990;29;19911;-81
2023/05/05 08:18:37;;;;;;;;;;;;;;;18.61;60.87;101547.44;4918193;29;19915;-81
2023/05/05 08:21:06;;;;;;;;;;;;;;;18.73;60.38;101554.09;4911191;29;20013;-81
2023/05/05 08:23:32;;;;;;;;;;;;;;;18.88;60.24;101555.25;4918314;29;19921;-81
2023/05/05 08:25:57;;;;;;;;;;;;;;;19.01;60.87;101556.41;4891356;29;19994;-80
2023/05/05 08:28:22;;;;;;;;;;;;;;;19.23;60.37;101556.28;4882661;29;19922;-80
2023/05/05 08:30:51;;;;;;;;;;;;;;;19.34;59.64;101551.31;4900395;29;19919;-80
2023/05/05 08:33:16;;;;;;;;;;;;;;;19.44;59.72;101548.19;4899233;29;19919;-80
2023/05/05 08:35:42;;;;;;;;;;;;;;;19.50;60.03;101550.56;4911826;29;19923;-80
2023/05/05 08:38:07;;;;;;;;;;;;;;;19.54;58.83;101557.53;4904840;29;19938;-80
2023/05/05 08:40:36;;;;;;;;;;;;;;;19.48;58.33;101561.38;4917691;29;19931;-80
2023/05/05 08:43:02;;;;;;;;;;;;;;;19.47;58.44;101558.78;4904863;29;20255;-80
2023/05/05 08:45:28;;;;;;;;;;;;;;;19.39;58.71;101555.59;4917784;29;20288;-80
2023/05/05 08:47:57;;;;;;;;;;;;;;;19.29;58.34;101550.66;4917905;29;19930;-80
2023/05/05 08:50:26;;;;;;;;;;;;;;;19.16;58.12;101564.69;4911092;29;19920;-80
2023/05/05 08:53:00;;;;;;;;;;;;;;;19.12;59.11;101561.31;4911563;29;19922;-80
2023/05/05 08:55:28;;;;;;;;;;;;;;;19.11;59.46;101563.13;4917390;29;19923;-80
2023/05/05 08:57:55;;;;;;;;;;;;;;;19.10;58.82;101565.88;4917535;29;20293;-81
2023/05/05 09:00:21;;;;;;;;;;;;;;;19.08;59.44;101565.06;4911450;29;19915;-81
2023/05/05 09:02:46;;;;;;;;;;;;;;;19.15;59.82;101566.53;4897807;29;19918;-80
2023/05/05 09:05:12;;;;;;;;;;;;;;;19.17;58.85;101559.28;4899774;29;20351;-81
2023/05/05 09:07:40;;;;;;;;;;;;;;;19.11;58.45;101551.50;4913663;29;19939;-81
2023/05/05 09:10:07;;;;;;;;;;;;;;;19.07;58.49;101548.09;4918730;29;20006;-81
2023/05/05 09:12:33;;;;;;;;;;;;;;;19.04;58.56;101547.34;4910976;29;19963;-81
2023/05/05 09:15:02;;;;;;;;;;;;;;;19.01;58.92;101552.84;4912987;29;19923;-81
2023/05/05 09:17:28;;;;;;;;;;;;;;;19.07;59.59;101555.28;4918200;29;19986;-81
2023/05/05 09:20:03;;;;;;;;;;;;;;;19.17;59.16;101551.22;4904682;29;20364;-81
2023/05/05 09:22:32;;;;;;;;;;;;;;;19.29;59.65;101561.38;4893198;29;19915;-80
2023/05/05 09:24:57;;;;;;;;;;;;;;;19.40;59.08;101563.56;4915955;29;19915;-80
2023/05/05 09:27:23;;;;;;;;;;;;;;;19.36;59.12;101570.00;4904223;29;20295;-80
2023/05/05 09:29:49;;;;;;;;;;;;;;;19.35;59.23;101565.59;4916501;29;19915;-80
2023/05/05 09:32:15;;;;;;;;;;;;;;;19.38;59.30;101564.56;4909163;29;19961;-80
2023/05/05 09:34:40;;;;;;;;;;;;;;;19.43;59.28;101575.97;4910824;29;19922;-80
2023/05/05 09:37:05;;;;;;;;;;;;;;;19.40;58.84;101570.75;4916022;29;19919;-80
2023/05/05 09:39:31;;;;;;;;;;;;;;;19.36;59.10;101569.16;4915452;29;20274;-80
2023/05/05 09:41:57;;;;;;;;;;;;;;;19.32;59.13;101577.34;4899886;29;19915;-81
2023/05/05 09:44:33;;;;;;;;;;;;;;;19.31;59.30;101572.94;4916982;29;20367;-81
2023/05/05 09:46:59;;;;;;;;;;;;;;;19.28;58.72;101562.31;4916906;29;20286;-81
2023/05/05 09:49:25;;;;;;;;;;;;;;;19.26;58.24;101558.84;4917048;29;20180;-81
2023/05/05 09:51:54;;;;;;;;;;;;;;;19.25;58.45;101557.09;4905181;29;20403;-81
2023/05/05 09:54:29;;;;;;;;;;;;;;;19.25;57.07;101558.91;4904575;29;19989;-81
2023/05/05 09:56:57;;;;;;;;;;;;;;;19.27;57.78;101568.66;4918718;29;19922;-81
2023/05/05 09:59:23;;;;;;;;;;;;;;;19.25;57.74;101559.78;4919438;29;19920;-80
2023/05/05 10:01:49;;;;;;;;;;;;;;;19.24;57.78;101560.75;4915587;29;19915;-80
2023/05/05 10:04:23;;;;;;;;;;;;;;;19.17;56.93;101563.78;4921285;29;20355;-80
2023/05/05 10:06:49;;;;;;;;;;;;;;;19.18;56.13;101561.00;4914630;29;19918;-80
2023/05/05 10:09:14;;;;;;;;;;;;;;;19.21;55.77;101555.47;4931321;28;20410;-80
2023/05/05 10:11:40;;;;;;;;;;;;;;;19.18;57.02;101554.78;4914074;29;19973;-80
2023/05/05 10:14:06;;;;;;;;;;;;;;;19.13;56.90;101566.59;4905423;29;20255;-80
2023/05/05 10:16:32;;;;;;;;;;;;;;;19.10;57.40;101560.50;4915635;29;20379;-80
2023/05/05 10:19:00;;;;;;;;;;;;;;;19.01;58.35;101556.41;4901474;29;19990;-80
2023/05/05 10:21:26;;;;;;;;;;;;;;;18.90;59.72;101559.59;4909052;29;20271;-80
2023/05/05 10:24:05;;;;;;;;;;;;;;;18.79;59.50;101556.53;4903253;29;19911;-82
2023/05/05 10:26:33;;;;;;;;;;;;;;;18.68;62.40;101564.16;4905231;29;19923;-79
2023/05/05 10:29:02;;;;;;;;;;;;;;;18.56;64.79;101557.50;4911405;29;20400;-79
2023/05/05 10:31:30;;;;;;;;;;;;;;;18.44;65.82;101571.44;4913117;29;20359;-79
2023/05/05 10:33:55;;;;;;;;;;;;;;;18.34;64.45;101570.97;4901332;29;19970;-78
2023/05/05 10:36:21;;;;;;;;;;;;;;;18.16;65.63;101569.06;4902326;29;19954;-77
2023/05/05 10:38:48;;;;;;;;;;;;;;;18.03;68.22;101577.63;4929861;29;19911;-77
2023/05/05 10:41:14;;;;;;;;;;;;;;;17.89;70.47;101574.63;4916187;29;20098;-76
2023/05/05 10:43:40;;;;;;;;;;;;;;;17.76;72.23;101584.94;4916374;29;19919;-76
2023/05/05 10:46:06;;;;;;;;;;;;;;;17.59;72.68;101588.28;4914936;29;19924;-77
2023/05/05 10:48:34;;;;;;;;;;;;;;;17.47;73.32;101595.94;4916452;29;20355;-78
2023/05/05 10:51:12;;;;;;;;;;;;;;;17.34;75.04;101595.53;4905028;29;19912;-77
2023/05/05 10:53:41;;;;;;;;;;;;;;;17.31;77.40;101600.97;4918832;29;19967;-78
2023/05/05 10:56:16;;;;;;;;;;;;;;;17.19;78.32;101605.88;4917308;29;19930;-78
2023/05/05 10:58:41;;;;;;;;;;;;;;;17.04;80.84;101613.63;4897831;29;19926;-78
2023/05/05 11:01:08;;;;;;;;;;;;;;;16.92;81.58;101613.13;4908233;29;20287;-78
2023/05/05 11:03:33;;;;;;;;;;;;;;;16.84;81.17;101611.63;4910499;29;19915;-78
2023/05/05 11:06:06;;;;;;;;;;;;;;;16.83;81.64;101612.56;4907529;29;20066;-78
2023/05/05 11:08:38;;;;;;;;;;;;;;;16.65;78.47;101614.06;4916403;29;19919;-79
2023/05/05 11:11:04;;;;;;;;;;;;;;;16.41;78.77;101615.78;4916126;29;20298;-79
2023/05/05 11:13:30;;;;;;;;;;;;;;;16.06;78.76;101623.16;4896627;29;19926;-79
2023/05/05 11:15:56;;;;;;;;;;;;;;;15.78;79.69;101616.03;4895708;29;19915;-79
2023/05/05 11:18:35;;;;;;;;;;;;;;;15.59;79.99;101613.00;4880781;29;20002;-78
2023/05/05 11:21:01;;;;;;;;;;;;;;;15.54;79.61;101619.41;4905845;29;19915;-79
2023/05/05 11:23:27;;;;;;;;;;;;;;;15.51;79.70;101624.84;4915691;29;19911;-78
2023/05/05 11:25:56;;;;;;;;;;;;;;;15.41;81.49;101619.78;4896082;29;19927;-77
2023/05/05 11:28:28;;;;;;;;;;;;;;;15.27;81.95;101613.97;4888897;29;19923;-78
2023/05/05 11:30:54;;;;;;;;;;;;;;;15.20;82.39;101615.06;4896774;29;19919;-78
2023/05/05 11:33:22;;;;;;;;;;;;;;;15.08;81.92;101621.63;4903014;29;20426;-77
2023/05/05 11:35:53;;;;;;;;;;;;;;;15.00;84.02;101612.97;4908978;29;19915;-77
2023/05/05 11:38:21;;;;;;;;;;;;;;;14.94;83.67;101619.34;4915068;29;19915;-78
2023/05/05 11:40:48;;;;;;;;;;;;;;;14.79;86.42;101625.09;4914261;29;20006;-78
2023/05/05 11:43:17;;;;;;;;;;;;;;;14.68;87.68;101629.84;4880310;29;19915;-78
2023/05/05 11:45:43;;;;;;;;;;;;;;;14.65;86.20;101622.78;4906619;29;19911;-78
2023/05/05 11:48:27;;;;;;;;;;;;;;;14.60;88.17;101622.03;4898182;29;20014;-78
2023/05/05 11:50:52;;;;;;;;;;;;;;;14.57;88.10;101624.78;4886565;29;19915;-78
2023/05/05 11:53:18;;;;;;;;;;;;;;;14.61;86.20;101624.69;4902884;29;19918;-78
2023/05/05 11:55:43;;;;;;;;;;;;;;;14.63;86.40;101612.16;4918496;29;20045;-78
2023/05/05 11:58:18;;;;;;;;;;;;;;;14.75;87.41;101599.44;4918772;29;19925;-78
2023/05/05 12:00:44;;;;;;;;;;;;;;;14.82;88.36;101601.88;4909454;29;19915;-77
2023/05/05 12:03:09;;;;;;;;;;;;;;;14.88;86.51;101605.31;4897558;29;20022;-78
2023/05/05 12:05:34;;;;;;;;;;;;;;;14.90;84.04;101600.81;4901553;29;19918;-78
2023/05/05 12:08:00;;;;;;;;;;;;;;;14.87;87.98;101595.56;4905707;29;19969;-78
2023/05/05 12:10:26;;;;;;;;;;;;;;;14.86;87.94;101602.69;4918175;29;20343;-78
2023/05/05 12:12:51;;;;;;;;;;;;;;;14.83;85.59;101608.97;4918761;29;20429;-78
2023/05/05 12:15:26;;;;;;;;;;;;;;;14.83;85.39;101611.63;4917166;29;19914;-78
2023/05/05 12:17:51;;;;;;;;;;;;;;;14.75;86.63;101604.75;4918699;29;19919;-78